sensor_id;sensor_type;location;lat;lon;timestamp;P1;durP1;ratioP1;P2;durP2;ratioP2
6251;SDS011;3159;52.414;9.784;2024-01-15T00:01:22;14.30;;;9.70;;
6251;SDS011;3159;52.414;9.784;2024-01-15T00:03:50;12.80;;;9.10;;
6251;SDS011;3159;52.414;9.784;2024-01-15T00:06:17;16.07;;;9.70;;
6251;SDS011;3159;52.414;9.784;2024-01-15T00:08:44;14.00;;;9.67;;
6251;SDS011;3159;52.414;9.784;2024-01-15T00:11:11;14.03;;;9.00;;
6251;SDS011;3159;52.414;9.784;2024-01-15T00:13:37;13.50;;;9.10;;
6251;SDS011;3159;52.414;9.784;2024-01-15T00:16:04;17.37;;;9.07;;
6251;SDS011;3159;52.414;9.784;2024-01-15T00:18:31;14.57;;;8.60;;
6251;SDS011;3159;52.414;9.784;2024-01-15T00:20:59;13.07;;;8.93;;
6251;SDS011;3159;52.414;9.784;2024-01-15T00:23:26;12.53;;;8.10;;
6251;SDS011;3159;52.414;9.784;2024-01-15T00:25:53;12.50;;;8.20;;
6251;SDS011;3159;52.414;9.784;2024-01-15T00:28:20;13.67;;;7.57;;
6251;SDS011;3159;52.414;9.784;2024-01-15T00:30:46;11.40;;;7.57;;
6251;SDS011;3159;52.414;9.784;2024-01-15T00:33:13;12.10;;;7.13;;
6251;SDS011;3159;52.414;9.784;2024-01-15T00:35:40;9.27;;;6.57;;
6251;SDS011;3159;52.414;9.784;2024-01-15T00:38:08;9.40;;;6.30;;
6251;SDS011;3159;52.414;9.784;2024-01-15T00:40:35;8.83;;;5.87;;
6251;SDS011;3159;52.414;9.784;2024-01-15T00:43:02;12.73;;;6.53;;
6251;SDS011;3159;52.414;9.784;2024-01-15T00:45:29;10.33;;;6.50;;
6251;SDS011;3159;52.414;9.784;2024-01-15T00:47:56;8.10;;;5.70;;
6251;SDS011;3159;52.414;9.784;2024-01-15T00:50:24;13.33;;;6.50;;
6251;SDS011;3159;52.414;9.784;2024-01-15T00:52:51;9.70;;;6.60;;
6251;SDS011;3159;52.414;9.784;2024-01-15T00:55:19;9.17;;;5.97;;
6251;SDS011;3159;52.414;9.784;2024-01-15T00:57:46;10.03;;;6.03;;
6251;SDS011;3159;52.414;9.784;2024-01-15T01:00:13;8.67;;;6.10;;
6251;SDS011;3159;52.414;9.784;2024-01-15T01:02:40;9.27;;;5.30;;
6251;SDS011;3159;52.414;9.784;2024-01-15T01:05:07;9.27;;;5.60;;
6251;SDS011;3159;52.414;9.784;2024-01-15T01:07:34;10.30;;;5.67;;
6251;SDS011;3159;52.414;9.784;2024-01-15T01:10:01;9.77;;;5.63;;
6251;SDS011;3159;52.414;9.784;2024-01-15T01:12:29;8.53;;;5.33;;
6251;SDS011;3159;52.414;9.784;2024-01-15T01:14:56;9.70;;;5.23;;
6251;SDS011;3159;52.414;9.784;2024-01-15T01:17:23;10.73;;;5.90;;
6251;SDS011;3159;52.414;9.784;2024-01-15T01:19:51;10.33;;;5.83;;
6251;SDS011;3159;52.414;9.784;2024-01-15T01:22:17;7.43;;;5.23;;
6251;SDS011;3159;52.414;9.784;2024-01-15T01:24:44;9.57;;;5.77;;
6251;SDS011;3159;52.414;9.784;2024-01-15T01:27:12;7.13;;;4.37;;
6251;SDS011;3159;52.414;9.784;2024-01-15T01:29:40;6.43;;;4.40;;
6251;SDS011;3159;52.414;9.784;2024-01-15T01:32:07;9.40;;;5.03;;
6251;SDS011;3159;52.414;9.784;2024-01-15T01:34:39;10.33;;;4.60;;
6251;SDS011;3159;52.414;9.784;2024-01-15T01:37:07;6.43;;;3.70;;
6251;SDS011;3159;52.414;9.784;2024-01-15T01:39:34;8.97;;;4.10;;
6251;SDS011;3159;52.414;9.784;2024-01-15T01:42:00;11.13;;;3.50;;
6251;SDS011;3159;52.414;9.784;2024-01-15T01:44:27;6.60;;;3.90;;
6251;SDS011;3159;52.414;9.784;2024-01-15T01:46:55;5.90;;;2.90;;
6251;SDS011;3159;52.414;9.784;2024-01-15T01:49:22;6.17;;;2.90;;
6251;SDS011;3159;52.414;9.784;2024-01-15T01:51:50;9.60;;;3.10;;
6251;SDS011;3159;52.414;9.784;2024-01-15T01:54:18;6.17;;;2.70;;
6251;SDS011;3159;52.414;9.784;2024-01-15T01:56:46;6.53;;;2.83;;
6251;SDS011;3159;52.414;9.784;2024-01-15T01:59:14;9.07;;;2.93;;
6251;SDS011;3159;52.414;9.784;2024-01-15T02:01:41;6.47;;;2.53;;
6251;SDS011;3159;52.414;9.784;2024-01-15T02:04:10;5.57;;;2.37;;
6251;SDS011;3159;52.414;9.784;2024-01-15T02:06:37;7.00;;;2.63;;
6251;SDS011;3159;52.414;9.784;2024-01-15T02:09:04;6.43;;;2.50;;
6251;SDS011;3159;52.414;9.784;2024-01-15T02:11:31;5.13;;;2.13;;
6251;SDS011;3159;52.414;9.784;2024-01-15T02:13:58;6.53;;;2.53;;
6251;SDS011;3159;52.414;9.784;2024-01-15T02:16:25;8.90;;;3.03;;
6251;SDS011;3159;52.414;9.784;2024-01-15T02:18:52;8.60;;;3.00;;
6251;SDS011;3159;52.414;9.784;2024-01-15T02:21:20;11.60;;;2.93;;
6251;SDS011;3159;52.414;9.784;2024-01-15T02:23:48;5.70;;;2.87;;
6251;SDS011;3159;52.414;9.784;2024-01-15T02:26:15;4.63;;;2.53;;
6251;SDS011;3159;52.414;9.784;2024-01-15T02:28:42;4.97;;;2.77;;
6251;SDS011;3159;52.414;9.784;2024-01-15T02:31:09;7.87;;;2.70;;
6251;SDS011;3159;52.414;9.784;2024-01-15T02:33:36;8.27;;;2.40;;
6251;SDS011;3159;52.414;9.784;2024-01-15T02:36:03;8.57;;;2.60;;
6251;SDS011;3159;52.414;9.784;2024-01-15T02:38:30;5.87;;;2.53;;
6251;SDS011;3159;52.414;9.784;2024-01-15T02:40:58;7.20;;;2.40;;
6251;SDS011;3159;52.414;9.784;2024-01-15T02:43:25;6.37;;;2.30;;
6251;SDS011;3159;52.414;9.784;2024-01-15T02:45:52;6.87;;;2.20;;
6251;SDS011;3159;52.414;9.784;2024-01-15T02:48:19;6.00;;;1.97;;
6251;SDS011;3159;52.414;9.784;2024-01-15T02:50:45;8.27;;;2.47;;
6251;SDS011;3159;52.414;9.784;2024-01-15T02:53:12;6.40;;;2.17;;
6251;SDS011;3159;52.414;9.784;2024-01-15T02:55:39;8.73;;;2.20;;
6251;SDS011;3159;52.414;9.784;2024-01-15T02:58:07;6.73;;;2.00;;
6251;SDS011;3159;52.414;9.784;2024-01-15T03:00:34;10.00;;;2.47;;
6251;SDS011;3159;52.414;9.784;2024-01-15T03:03:01;8.17;;;2.03;;
6251;SDS011;3159;52.414;9.784;2024-01-15T03:05:28;10.03;;;2.00;;
6251;SDS011;3159;52.414;9.784;2024-01-15T03:07:54;7.07;;;2.07;;
6251;SDS011;3159;52.414;9.784;2024-01-15T03:10:21;4.47;;;1.67;;
6251;SDS011;3159;52.414;9.784;2024-01-15T03:12:48;10.77;;;2.07;;
6251;SDS011;3159;52.414;9.784;2024-01-15T03:15:16;10.30;;;1.80;;
6251;SDS011;3159;52.414;9.784;2024-01-15T03:17:44;5.63;;;1.77;;
6251;SDS011;3159;52.414;9.784;2024-01-15T03:20:11;5.67;;;1.97;;
6251;SDS011;3159;52.414;9.784;2024-01-15T03:22:38;4.90;;;1.17;;
6251;SDS011;3159;52.414;9.784;2024-01-15T03:25:05;7.90;;;1.83;;
6251;SDS011;3159;52.414;9.784;2024-01-15T03:27:33;4.87;;;1.50;;
6251;SDS011;3159;52.414;9.784;2024-01-15T03:30:00;5.20;;;1.40;;
6251;SDS011;3159;52.414;9.784;2024-01-15T03:32:28;11.77;;;1.63;;
6251;SDS011;3159;52.414;9.784;2024-01-15T03:34:55;2.90;;;1.27;;
6251;SDS011;3159;52.414;9.784;2024-01-15T03:37:22;4.83;;;1.30;;
6251;SDS011;3159;52.414;9.784;2024-01-15T03:39:49;14.43;;;2.23;;
6251;SDS011;3159;52.414;9.784;2024-01-15T03:42:16;7.93;;;1.57;;
6251;SDS011;3159;52.414;9.784;2024-01-15T03:44:42;5.87;;;1.57;;
6251;SDS011;3159;52.414;9.784;2024-01-15T03:47:09;8.13;;;1.50;;
6251;SDS011;3159;52.414;9.784;2024-01-15T03:49:37;6.40;;;1.33;;
6251;SDS011;3159;52.414;9.784;2024-01-15T03:52:04;5.83;;;1.70;;
6251;SDS011;3159;52.414;9.784;2024-01-15T03:54:31;6.07;;;1.60;;
6251;SDS011;3159;52.414;9.784;2024-01-15T03:56:58;8.20;;;1.47;;
6251;SDS011;3159;52.414;9.784;2024-01-15T03:59:26;6.47;;;1.90;;
6251;SDS011;3159;52.414;9.784;2024-01-15T04:01:52;6.50;;;1.27;;
6251;SDS011;3159;52.414;9.784;2024-01-15T04:04:19;5.23;;;1.27;;
6251;SDS011;3159;52.414;9.784;2024-01-15T04:06:47;7.57;;;1.40;;
6251;SDS011;3159;52.414;9.784;2024-01-15T04:09:14;6.03;;;1.70;;
6251;SDS011;3159;52.414;9.784;2024-01-15T04:11:41;3.63;;;1.23;;
6251;SDS011;3159;52.414;9.784;2024-01-15T04:14:08;7.43;;;1.70;;
6251;SDS011;3159;52.414;9.784;2024-01-15T04:16:34;4.60;;;1.30;;
6251;SDS011;3159;52.414;9.784;2024-01-15T04:19:01;5.27;;;1.40;;
6251;SDS011;3159;52.414;9.784;2024-01-15T04:21:28;7.13;;;1.57;;
6251;SDS011;3159;52.414;9.784;2024-01-15T04:23:56;7.97;;;1.90;;
6251;SDS011;3159;52.414;9.784;2024-01-15T04:26:23;4.20;;;1.40;;
6251;SDS011;3159;52.414;9.784;2024-01-15T04:28:49;9.57;;;2.23;;
6251;SDS011;3159;52.414;9.784;2024-01-15T04:31:23;4.97;;;1.40;;
6251;SDS011;3159;52.414;9.784;2024-01-15T04:33:51;4.80;;;1.50;;
6251;SDS011;3159;52.414;9.784;2024-01-15T04:36:18;4.53;;;1.53;;
6251;SDS011;3159;52.414;9.784;2024-01-15T04:38:45;6.07;;;1.60;;
6251;SDS011;3159;52.414;9.784;2024-01-15T04:41:13;6.47;;;1.40;;
6251;SDS011;3159;52.414;9.784;2024-01-15T04:43:41;5.00;;;1.50;;
6251;SDS011;3159;52.414;9.784;2024-01-15T04:46:08;10.00;;;1.30;;
6251;SDS011;3159;52.414;9.784;2024-01-15T04:48:35;4.43;;;1.47;;
6251;SDS011;3159;52.414;9.784;2024-01-15T04:51:03;3.93;;;1.43;;
6251;SDS011;3159;52.414;9.784;2024-01-15T04:53:31;6.47;;;1.27;;
6251;SDS011;3159;52.414;9.784;2024-01-15T04:55:58;3.37;;;1.20;;
6251;SDS011;3159;52.414;9.784;2024-01-15T04:58:26;6.70;;;1.60;;
6251;SDS011;3159;52.414;9.784;2024-01-15T05:00:53;5.20;;;1.67;;
6251;SDS011;3159;52.414;9.784;2024-01-15T05:03:20;7.87;;;1.60;;
6251;SDS011;3159;52.414;9.784;2024-01-15T05:05:47;5.67;;;1.50;;
6251;SDS011;3159;52.414;9.784;2024-01-15T05:08:14;6.83;;;1.47;;
6251;SDS011;3159;52.414;9.784;2024-01-15T05:10:40;4.77;;;1.30;;
6251;SDS011;3159;52.414;9.784;2024-01-15T05:13:07;8.03;;;1.80;;
6251;SDS011;3159;52.414;9.784;2024-01-15T05:15:35;3.63;;;1.20;;
6251;SDS011;3159;52.414;9.784;2024-01-15T05:18:02;4.53;;;1.70;;
6251;SDS011;3159;52.414;9.784;2024-01-15T05:20:29;5.37;;;1.30;;
6251;SDS011;3159;52.414;9.784;2024-01-15T05:22:56;5.77;;;1.23;;
6251;SDS011;3159;52.414;9.784;2024-01-15T05:25:22;5.00;;;1.37;;
6251;SDS011;3159;52.414;9.784;2024-01-15T05:27:49;4.77;;;1.17;;
6251;SDS011;3159;52.414;9.784;2024-01-15T05:30:16;8.80;;;1.73;;
6251;SDS011;3159;52.414;9.784;2024-01-15T05:32:44;9.60;;;1.73;;
6251;SDS011;3159;52.414;9.784;2024-01-15T05:35:11;6.07;;;1.60;;
6251;SDS011;3159;52.414;9.784;2024-01-15T05:37:40;3.57;;;1.53;;
6251;SDS011;3159;52.414;9.784;2024-01-15T05:40:11;7.70;;;1.60;;
6251;SDS011;3159;52.414;9.784;2024-01-15T05:42:38;5.68;;;1.50;;
6251;SDS011;3159;52.414;9.784;2024-01-15T05:45:06;8.10;;;1.93;;
6251;SDS011;3159;52.414;9.784;2024-01-15T05:47:33;7.73;;;1.37;;
6251;SDS011;3159;52.414;9.784;2024-01-15T05:50:01;3.93;;;1.47;;
6251;SDS011;3159;52.414;9.784;2024-01-15T05:52:28;5.53;;;1.73;;
6251;SDS011;3159;52.414;9.784;2024-01-15T05:54:55;4.73;;;1.53;;
6251;SDS011;3159;52.414;9.784;2024-01-15T05:57:22;3.13;;;1.33;;
6251;SDS011;3159;52.414;9.784;2024-01-15T05:59:49;3.17;;;1.60;;
6251;SDS011;3159;52.414;9.784;2024-01-15T06:02:16;4.63;;;1.20;;
6251;SDS011;3159;52.414;9.784;2024-01-15T06:04:43;4.87;;;1.30;;
6251;SDS011;3159;52.414;9.784;2024-01-15T06:07:11;4.53;;;1.30;;
6251;SDS011;3159;52.414;9.784;2024-01-15T06:09:38;6.97;;;1.30;;
6251;SDS011;3159;52.414;9.784;2024-01-15T06:12:05;3.53;;;1.63;;
6251;SDS011;3159;52.414;9.784;2024-01-15T06:14:33;4.27;;;1.40;;
6251;SDS011;3159;52.414;9.784;2024-01-15T06:16:59;5.43;;;1.53;;
6251;SDS011;3159;52.414;9.784;2024-01-15T06:19:26;7.17;;;1.47;;
6251;SDS011;3159;52.414;9.784;2024-01-15T06:21:53;1.87;;;0.90;;
6251;SDS011;3159;52.414;9.784;2024-01-15T06:24:21;5.80;;;1.47;;
6251;SDS011;3159;52.414;9.784;2024-01-15T06:26:48;4.77;;;1.33;;
6251;SDS011;3159;52.414;9.784;2024-01-15T06:29:15;3.90;;;1.67;;
6251;SDS011;3159;52.414;9.784;2024-01-15T06:31:41;7.47;;;1.80;;
6251;SDS011;3159;52.414;9.784;2024-01-15T06:34:08;4.93;;;1.30;;
6251;SDS011;3159;52.414;9.784;2024-01-15T06:36:35;6.10;;;1.73;;
6251;SDS011;3159;52.414;9.784;2024-01-15T06:39:02;8.93;;;1.83;;
6251;SDS011;3159;52.414;9.784;2024-01-15T06:41:30;6.43;;;1.57;;
6251;SDS011;3159;52.414;9.784;2024-01-15T06:43:57;8.37;;;1.67;;
6251;SDS011;3159;52.414;9.784;2024-01-15T06:46:23;7.27;;;2.00;;
6251;SDS011;3159;52.414;9.784;2024-01-15T06:48:50;4.73;;;1.60;;
6251;SDS011;3159;52.414;9.784;2024-01-15T06:51:17;8.50;;;2.00;;
6251;SDS011;3159;52.414;9.784;2024-01-15T06:53:44;6.07;;;1.63;;
6251;SDS011;3159;52.414;9.784;2024-01-15T06:56:11;6.72;;;1.50;;
6251;SDS011;3159;52.414;9.784;2024-01-15T06:58:39;4.93;;;1.73;;
6251;SDS011;3159;52.414;9.784;2024-01-15T07:01:05;7.20;;;1.57;;
6251;SDS011;3159;52.414;9.784;2024-01-15T07:03:33;8.03;;;2.07;;
6251;SDS011;3159;52.414;9.784;2024-01-15T07:05:59;5.63;;;1.73;;
6251;SDS011;3159;52.414;9.784;2024-01-15T07:08:26;8.77;;;1.40;;
6251;SDS011;3159;52.414;9.784;2024-01-15T07:10:53;5.83;;;1.53;;
6251;SDS011;3159;52.414;9.784;2024-01-15T07:13:20;3.87;;;1.53;;
6251;SDS011;3159;52.414;9.784;2024-01-15T07:15:48;6.00;;;1.70;;
6251;SDS011;3159;52.414;9.784;2024-01-15T07:18:15;3.20;;;1.17;;
6251;SDS011;3159;52.414;9.784;2024-01-15T07:20:42;5.60;;;1.63;;
6251;SDS011;3159;52.414;9.784;2024-01-15T07:23:09;16.30;;;9.83;;
6251;SDS011;3159;52.414;9.784;2024-01-15T07:25:35;5.37;;;2.20;;
6251;SDS011;3159;52.414;9.784;2024-01-15T07:28:02;10.80;;;3.80;;
6251;SDS011;3159;52.414;9.784;2024-01-15T07:30:29;7.00;;;3.13;;
6251;SDS011;3159;52.414;9.784;2024-01-15T07:32:58;4.37;;;2.47;;
6251;SDS011;3159;52.414;9.784;2024-01-15T07:35:24;3.40;;;1.80;;
6251;SDS011;3159;52.414;9.784;2024-01-15T07:37:51;11.07;;;4.13;;
6251;SDS011;3159;52.414;9.784;2024-01-15T07:40:18;7.33;;;3.70;;
6251;SDS011;3159;52.414;9.784;2024-01-15T07:42:45;6.83;;;3.20;;
6251;SDS011;3159;52.414;9.784;2024-01-15T07:45:12;2.97;;;2.13;;
6251;SDS011;3159;52.414;9.784;2024-01-15T07:47:39;5.77;;;2.23;;
6251;SDS011;3159;52.414;9.784;2024-01-15T07:50:07;4.60;;;3.20;;
6251;SDS011;3159;52.414;9.784;2024-01-15T07:52:34;7.67;;;3.00;;
6251;SDS011;3159;52.414;9.784;2024-01-15T07:55:01;4.63;;;2.57;;
6251;SDS011;3159;52.414;9.784;2024-01-15T07:57:28;5.87;;;3.20;;
6251;SDS011;3159;52.414;9.784;2024-01-15T07:59:55;9.53;;;5.40;;
6251;SDS011;3159;52.414;9.784;2024-01-15T08:02:22;12.27;;;8.83;;
6251;SDS011;3159;52.414;9.784;2024-01-15T08:04:49;7.03;;;3.10;;
6251;SDS011;3159;52.414;9.784;2024-01-15T08:07:17;8.07;;;3.00;;
6251;SDS011;3159;52.414;9.784;2024-01-15T08:09:44;7.00;;;3.67;;
6251;SDS011;3159;52.414;9.784;2024-01-15T08:12:12;8.80;;;4.63;;
6251;SDS011;3159;52.414;9.784;2024-01-15T08:14:39;6.50;;;2.77;;
6251;SDS011;3159;52.414;9.784;2024-01-15T08:17:06;7.23;;;3.07;;
6251;SDS011;3159;52.414;9.784;2024-01-15T08:19:33;6.10;;;2.10;;
6251;SDS011;3159;52.414;9.784;2024-01-15T08:21:59;6.17;;;2.67;;
6251;SDS011;3159;52.414;9.784;2024-01-15T08:24:28;9.43;;;3.27;;
6251;SDS011;3159;52.414;9.784;2024-01-15T08:26:54;6.83;;;2.37;;
6251;SDS011;3159;52.414;9.784;2024-01-15T08:29:22;4.60;;;2.40;;
6251;SDS011;3159;52.414;9.784;2024-01-15T08:31:49;5.93;;;2.30;;
6251;SDS011;3159;52.414;9.784;2024-01-15T08:34:16;9.20;;;3.50;;
6251;SDS011;3159;52.414;9.784;2024-01-15T08:36:43;4.10;;;2.43;;
6251;SDS011;3159;52.414;9.784;2024-01-15T08:39:10;10.20;;;3.43;;
6251;SDS011;3159;52.414;9.784;2024-01-15T08:41:38;9.97;;;5.93;;
6251;SDS011;3159;52.414;9.784;2024-01-15T08:44:05;4.60;;;3.10;;
6251;SDS011;3159;52.414;9.784;2024-01-15T08:46:32;5.83;;;4.17;;
6251;SDS011;3159;52.414;9.784;2024-01-15T08:48:58;5.67;;;2.57;;
6251;SDS011;3159;52.414;9.784;2024-01-15T08:51:25;5.70;;;2.73;;
6251;SDS011;3159;52.414;9.784;2024-01-15T08:53:53;2.93;;;1.80;;
6251;SDS011;3159;52.414;9.784;2024-01-15T08:56:19;3.43;;;1.57;;
6251;SDS011;3159;52.414;9.784;2024-01-15T08:58:47;6.47;;;1.73;;
6251;SDS011;3159;52.414;9.784;2024-01-15T09:01:15;3.10;;;1.40;;
6251;SDS011;3159;52.414;9.784;2024-01-15T09:03:42;3.77;;;2.00;;
6251;SDS011;3159;52.414;9.784;2024-01-15T09:06:08;3.63;;;1.70;;
6251;SDS011;3159;52.414;9.784;2024-01-15T09:08:36;2.73;;;1.93;;
6251;SDS011;3159;52.414;9.784;2024-01-15T09:11:03;6.40;;;1.80;;
6251;SDS011;3159;52.414;9.784;2024-01-15T09:13:29;5.80;;;1.40;;
6251;SDS011;3159;52.414;9.784;2024-01-15T09:15:58;4.60;;;1.73;;
6251;SDS011;3159;52.414;9.784;2024-01-15T09:18:26;4.27;;;1.80;;
6251;SDS011;3159;52.414;9.784;2024-01-15T09:20:52;6.87;;;2.07;;
6251;SDS011;3159;52.414;9.784;2024-01-15T09:23:19;6.87;;;2.37;;
6251;SDS011;3159;52.414;9.784;2024-01-15T09:25:46;3.87;;;2.17;;
6251;SDS011;3159;52.414;9.784;2024-01-15T09:28:13;5.10;;;2.43;;
6251;SDS011;3159;52.414;9.784;2024-01-15T09:30:40;5.47;;;2.27;;
6251;SDS011;3159;52.414;9.784;2024-01-15T09:33:08;6.73;;;2.20;;
6251;SDS011;3159;52.414;9.784;2024-01-15T09:35:35;6.47;;;2.30;;
6251;SDS011;3159;52.414;9.784;2024-01-15T09:38:02;5.40;;;1.93;;
6251;SDS011;3159;52.414;9.784;2024-01-15T09:40:31;4.33;;;3.00;;
6251;SDS011;3159;52.414;9.784;2024-01-15T09:42:59;6.13;;;2.30;;
6251;SDS011;3159;52.414;9.784;2024-01-15T09:45:27;9.93;;;3.40;;
6251;SDS011;3159;52.414;9.784;2024-01-15T09:47:55;4.67;;;2.50;;
6251;SDS011;3159;52.414;9.784;2024-01-15T09:50:23;6.03;;;2.47;;
6251;SDS011;3159;52.414;9.784;2024-01-15T09:52:51;4.43;;;2.30;;
6251;SDS011;3159;52.414;9.784;2024-01-15T09:55:18;7.10;;;2.43;;
6251;SDS011;3159;52.414;9.784;2024-01-15T09:57:45;2.63;;;1.50;;
6251;SDS011;3159;52.414;9.784;2024-01-15T10:00:12;6.90;;;2.70;;
6251;SDS011;3159;52.414;9.784;2024-01-15T10:02:40;3.90;;;2.60;;
6251;SDS011;3159;52.414;9.784;2024-01-15T10:05:07;9.87;;;3.17;;
6251;SDS011;3159;52.414;9.784;2024-01-15T10:07:36;8.30;;;4.53;;
6251;SDS011;3159;52.414;9.784;2024-01-15T10:10:05;3.23;;;2.10;;
6251;SDS011;3159;52.414;9.784;2024-01-15T10:12:32;7.53;;;2.10;;
6251;SDS011;3159;52.414;9.784;2024-01-15T10:14:59;8.37;;;3.90;;
6251;SDS011;3159;52.414;9.784;2024-01-15T10:17:26;6.07;;;3.00;;
6251;SDS011;3159;52.414;9.784;2024-01-15T10:19:53;4.90;;;2.40;;
6251;SDS011;3159;52.414;9.784;2024-01-15T10:22:20;3.17;;;1.67;;
6251;SDS011;3159;52.414;9.784;2024-01-15T10:24:48;2.77;;;1.57;;
6251;SDS011;3159;52.414;9.784;2024-01-15T10:27:15;4.37;;;1.80;;
6251;SDS011;3159;52.414;9.784;2024-01-15T10:29:42;4.20;;;1.87;;
6251;SDS011;3159;52.414;9.784;2024-01-15T10:32:09;4.30;;;1.80;;
6251;SDS011;3159;52.414;9.784;2024-01-15T10:34:37;5.13;;;1.60;;
6251;SDS011;3159;52.414;9.784;2024-01-15T10:37:07;5.87;;;2.10;;
6251;SDS011;3159;52.414;9.784;2024-01-15T10:39:34;3.73;;;1.57;;
6251;SDS011;3159;52.414;9.784;2024-01-15T10:42:02;3.03;;;1.70;;
6251;SDS011;3159;52.414;9.784;2024-01-15T10:44:29;4.80;;;1.93;;
6251;SDS011;3159;52.414;9.784;2024-01-15T10:46:57;5.20;;;1.70;;
6251;SDS011;3159;52.414;9.784;2024-01-15T10:49:24;5.93;;;2.43;;
6251;SDS011;3159;52.414;9.784;2024-01-15T10:51:53;5.07;;;1.73;;
6251;SDS011;3159;52.414;9.784;2024-01-15T10:54:20;3.10;;;1.40;;
6251;SDS011;3159;52.414;9.784;2024-01-15T10:56:48;3.10;;;1.60;;
6251;SDS011;3159;52.414;9.784;2024-01-15T10:59:17;5.47;;;2.13;;
6251;SDS011;3159;52.414;9.784;2024-01-15T11:01:46;3.53;;;1.73;;
6251;SDS011;3159;52.414;9.784;2024-01-15T11:04:14;10.67;;;2.50;;
6251;SDS011;3159;52.414;9.784;2024-01-15T11:06:42;10.70;;;4.70;;
6251;SDS011;3159;52.414;9.784;2024-01-15T11:09:10;6.23;;;2.90;;
6251;SDS011;3159;52.414;9.784;2024-01-15T11:11:40;5.10;;;1.83;;
6251;SDS011;3159;52.414;9.784;2024-01-15T11:14:08;3.47;;;1.70;;
6251;SDS011;3159;52.414;9.784;2024-01-15T11:16:54;10.03;;;1.83;;
6251;SDS011;3159;52.414;9.784;2024-01-15T11:19:24;4.70;;;1.80;;
6251;SDS011;3159;52.414;9.784;2024-01-15T11:21:52;4.73;;;1.67;;
6251;SDS011;3159;52.414;9.784;2024-01-15T11:24:34;20.30;;;12.33;;
6251;SDS011;3159;52.414;9.784;2024-01-15T11:27:03;4.40;;;2.03;;
6251;SDS011;3159;52.414;9.784;2024-01-15T11:29:30;7.37;;;3.17;;
6251;SDS011;3159;52.414;9.784;2024-01-15T11:32:01;3.67;;;1.87;;
6251;SDS011;3159;52.414;9.784;2024-01-15T11:37:22;4.23;;;2.90;;
6251;SDS011;3159;52.414;9.784;2024-01-15T11:39:50;4.80;;;2.20;;
6251;SDS011;3159;52.414;9.784;2024-01-15T11:42:19;7.87;;;2.63;;
6251;SDS011;3159;52.414;9.784;2024-01-15T11:44:47;9.60;;;4.73;;
6251;SDS011;3159;52.414;9.784;2024-01-15T11:47:15;6.33;;;3.23;;
6251;SDS011;3159;52.414;9.784;2024-01-15T11:49:58;9.23;;;3.43;;
6251;SDS011;3159;52.414;9.784;2024-01-15T11:52:28;7.70;;;2.83;;
6251;SDS011;3159;52.414;9.784;2024-01-15T11:55:00;6.87;;;3.03;;
6251;SDS011;3159;52.414;9.784;2024-01-15T11:57:32;8.30;;;2.50;;
6251;SDS011;3159;52.414;9.784;2024-01-15T12:00:07;6.10;;;2.70;;
6251;SDS011;3159;52.414;9.784;2024-01-15T12:02:36;6.03;;;2.17;;
6251;SDS011;3159;52.414;9.784;2024-01-15T12:05:03;6.67;;;2.57;;
6251;SDS011;3159;52.414;9.784;2024-01-15T12:07:31;10.47;;;5.87;;
6251;SDS011;3159;52.414;9.784;2024-01-15T12:09:57;10.10;;;4.30;;
6251;SDS011;3159;52.414;9.784;2024-01-15T12:12:27;8.83;;;4.57;;
6251;SDS011;3159;52.414;9.784;2024-01-15T12:15:03;7.67;;;4.27;;
6251;SDS011;3159;52.414;9.784;2024-01-15T12:17:30;10.40;;;7.47;;
6251;SDS011;3159;52.414;9.784;2024-01-15T12:19:58;10.43;;;4.27;;
6251;SDS011;3159;52.414;9.784;2024-01-15T12:22:25;10.87;;;3.70;;
6251;SDS011;3159;52.414;9.784;2024-01-15T12:24:53;5.97;;;3.27;;
6251;SDS011;3159;52.414;9.784;2024-01-15T12:27:20;5.53;;;2.40;;
6251;SDS011;3159;52.414;9.784;2024-01-15T12:29:47;6.93;;;2.30;;
6251;SDS011;3159;52.414;9.784;2024-01-15T12:32:14;3.17;;;2.00;;
6251;SDS011;3159;52.414;9.784;2024-01-15T12:34:41;4.90;;;1.70;;
6251;SDS011;3159;52.414;9.784;2024-01-15T12:37:10;9.07;;;2.40;;
6251;SDS011;3159;52.414;9.784;2024-01-15T12:39:37;6.70;;;3.10;;
6251;SDS011;3159;52.414;9.784;2024-01-15T12:42:04;7.07;;;2.67;;
6251;SDS011;3159;52.414;9.784;2024-01-15T12:44:31;4.87;;;2.13;;
6251;SDS011;3159;52.414;9.784;2024-01-15T12:46:58;7.67;;;2.20;;
6251;SDS011;3159;52.414;9.784;2024-01-15T12:49:25;7.90;;;1.87;;
6251;SDS011;3159;52.414;9.784;2024-01-15T12:51:52;6.57;;;2.40;;
6251;SDS011;3159;52.414;9.784;2024-01-15T12:54:21;4.43;;;2.00;;
6251;SDS011;3159;52.414;9.784;2024-01-15T12:56:48;6.47;;;1.70;;
6251;SDS011;3159;52.414;9.784;2024-01-15T12:59:16;3.60;;;2.43;;
6251;SDS011;3159;52.414;9.784;2024-01-15T13:01:43;9.63;;;2.73;;
6251;SDS011;3159;52.414;9.784;2024-01-15T13:04:10;5.13;;;2.37;;
6251;SDS011;3159;52.414;9.784;2024-01-15T13:06:37;6.57;;;2.70;;
6251;SDS011;3159;52.414;9.784;2024-01-15T13:09:04;7.90;;;2.87;;
6251;SDS011;3159;52.414;9.784;2024-01-15T13:11:32;9.67;;;3.33;;
6251;SDS011;3159;52.414;9.784;2024-01-15T13:13:59;6.53;;;2.30;;
6251;SDS011;3159;52.414;9.784;2024-01-15T13:16:26;10.33;;;2.10;;
6251;SDS011;3159;52.414;9.784;2024-01-15T13:18:54;4.93;;;2.23;;
6251;SDS011;3159;52.414;9.784;2024-01-15T13:21:21;3.27;;;1.87;;
6251;SDS011;3159;52.414;9.784;2024-01-15T13:23:48;3.70;;;1.87;;
6251;SDS011;3159;52.414;9.784;2024-01-15T13:26:16;6.77;;;1.40;;
6251;SDS011;3159;52.414;9.784;2024-01-15T13:28:45;6.27;;;1.17;;
6251;SDS011;3159;52.414;9.784;2024-01-15T13:31:12;7.40;;;1.93;;
6251;SDS011;3159;52.414;9.784;2024-01-15T13:33:39;7.70;;;3.13;;
6251;SDS011;3159;52.414;9.784;2024-01-15T13:36:06;5.47;;;2.10;;
6251;SDS011;3159;52.414;9.784;2024-01-15T13:38:35;5.90;;;3.57;;
6251;SDS011;3159;52.414;9.784;2024-01-15T13:41:03;4.47;;;2.00;;
6251;SDS011;3159;52.414;9.784;2024-01-15T13:43:31;2.60;;;1.30;;
6251;SDS011;3159;52.414;9.784;2024-01-15T13:45:59;4.57;;;1.87;;
6251;SDS011;3159;52.414;9.784;2024-01-15T13:48:29;5.67;;;2.43;;
6251;SDS011;3159;52.414;9.784;2024-01-15T13:50:56;4.90;;;1.53;;
6251;SDS011;3159;52.414;9.784;2024-01-15T13:53:24;4.70;;;2.40;;
6251;SDS011;3159;52.414;9.784;2024-01-15T13:55:51;5.53;;;1.83;;
6251;SDS011;3159;52.414;9.784;2024-01-15T13:58:18;9.53;;;2.30;;
6251;SDS011;3159;52.414;9.784;2024-01-15T14:00:46;4.00;;;2.47;;
6251;SDS011;3159;52.414;9.784;2024-01-15T14:03:14;8.80;;;2.37;;
6251;SDS011;3159;52.414;9.784;2024-01-15T14:05:41;4.03;;;1.77;;
6251;SDS011;3159;52.414;9.784;2024-01-15T14:08:08;4.67;;;1.83;;
6251;SDS011;3159;52.414;9.784;2024-01-15T14:10:35;7.43;;;2.23;;
6251;SDS011;3159;52.414;9.784;2024-01-15T14:13:02;4.53;;;2.30;;
6251;SDS011;3159;52.414;9.784;2024-01-15T14:15:30;6.33;;;2.40;;
6251;SDS011;3159;52.414;9.784;2024-01-15T14:17:56;4.47;;;2.43;;
6251;SDS011;3159;52.414;9.784;2024-01-15T14:20:25;11.67;;;5.33;;
6251;SDS011;3159;52.414;9.784;2024-01-15T14:22:52;9.93;;;3.50;;
6251;SDS011;3159;52.414;9.784;2024-01-15T14:25:19;6.63;;;3.17;;
6251;SDS011;3159;52.414;9.784;2024-01-15T14:27:46;6.83;;;2.90;;
6251;SDS011;3159;52.414;9.784;2024-01-15T14:30:13;5.67;;;2.93;;
6251;SDS011;3159;52.414;9.784;2024-01-15T14:32:41;6.20;;;2.40;;
6251;SDS011;3159;52.414;9.784;2024-01-15T14:35:08;7.40;;;2.70;;
6251;SDS011;3159;52.414;9.784;2024-01-15T14:37:37;2.97;;;1.80;;
6251;SDS011;3159;52.414;9.784;2024-01-15T14:40:04;7.57;;;2.07;;
6251;SDS011;3159;52.414;9.784;2024-01-15T14:42:33;6.77;;;2.07;;
6251;SDS011;3159;52.414;9.784;2024-01-15T14:45:00;6.70;;;2.30;;
6251;SDS011;3159;52.414;9.784;2024-01-15T14:47:27;7.03;;;3.30;;
6251;SDS011;3159;52.414;9.784;2024-01-15T14:49:54;5.13;;;2.80;;
6251;SDS011;3159;52.414;9.784;2024-01-15T14:52:22;6.13;;;2.80;;
6251;SDS011;3159;52.414;9.784;2024-01-15T14:54:51;3.43;;;2.40;;
6251;SDS011;3159;52.414;9.784;2024-01-15T14:57:17;4.43;;;2.60;;
6251;SDS011;3159;52.414;9.784;2024-01-15T14:59:44;5.77;;;2.90;;
6251;SDS011;3159;52.414;9.784;2024-01-15T15:02:11;9.07;;;2.77;;
6251;SDS011;3159;52.414;9.784;2024-01-15T15:04:39;7.20;;;4.33;;
6251;SDS011;3159;52.414;9.784;2024-01-15T15:07:06;8.27;;;3.50;;
6251;SDS011;3159;52.414;9.784;2024-01-15T15:09:33;7.67;;;3.90;;
6251;SDS011;3159;52.414;9.784;2024-01-15T15:12:04;12.50;;;4.77;;
6251;SDS011;3159;52.414;9.784;2024-01-15T15:14:32;10.23;;;4.53;;
6251;SDS011;3159;52.414;9.784;2024-01-15T15:17:02;7.83;;;3.70;;